sensor_id;sensor_type;location;lat;lon;timestamp;temperature;humidity
72762;SHT30;60886;55.034;73.150;2023-03-04T00:02:35;-12.57;74.57
72762;SHT30;60886;55.034;73.150;2023-03-04T00:05:37;-12.55;74.90
72762;SHT30;60886;55.034;73.150;2023-03-04T00:08:43;-12.45;74.44
72762;SHT30;60886;55.034;73.150;2023-03-04T00:11:45;-12.46;73.88
72762;SHT30;60886;55.034;73.150;2023-03-04T00:14:46;-12.59;74.36
72762;SHT30;60886;55.034;73.150;2023-03-04T00:17:47;-12.60;74.91
72762;SHT30;60886;55.034;73.150;2023-03-04T00:20:49;-12.62;74.90
72762;SHT30;60886;55.034;73.150;2023-03-04T00:23:50;-12.62;74.94
72762;SHT30;60886;55.034;73.150;2023-03-04T00:27:06;-12.73;74.30
72762;SHT30;60886;55.034;73.150;2023-03-04T00:30:08;-12.77;74.92
72762;SHT30;60886;55.034;73.150;2023-03-04T00:33:10;-12.93;75.41
72762;SHT30;60886;55.034;73.150;2023-03-04T00:36:21;-12.96;75.83
72762;SHT30;60886;55.034;73.150;2023-03-04T00:39:22;-12.91;75.76
72762;SHT30;60886;55.034;73.150;2023-03-04T00:42:34;-12.90;76.11
72762;SHT30;60886;55.034;73.150;2023-03-04T00:45:41;-12.93;76.09
72762;SHT30;60886;55.034;73.150;2023-03-04T00:48:47;-12.96;76.21
72762;SHT30;60886;55.034;73.150;2023-03-04T00:51:49;-12.99;76.58
72762;SHT30;60886;55.034;73.150;2023-03-04T00:55:00;-12.93;76.26
72762;SHT30;60886;55.034;73.150;2023-03-04T00:58:11;-12.96;76.01
72762;SHT30;60886;55.034;73.150;2023-03-04T01:01:17;-12.93;76.67
72762;SHT30;60886;55.034;73.150;2023-03-04T01:04:28;-12.99;76.26
72762;SHT30;60886;55.034;73.150;2023-03-04T01:07:30;-13.03;76.78
72762;SHT30;60886;55.034;73.150;2023-03-04T01:10:32;-13.06;76.68
72762;SHT30;60886;55.034;73.150;2023-03-04T01:13:33;-13.08;76.48
72762;SHT30;60886;55.034;73.150;2023-03-04T01:16:34;-13.22;76.49
72762;SHT30;60886;55.034;73.150;2023-03-04T01:19:36;-13.18;76.65
72762;SHT30;60886;55.034;73.150;2023-03-04T01:22:47;-13.22;76.43
72762;SHT30;60886;55.034;73.150;2023-03-04T01:25:49;-13.32;77.04
72762;SHT30;60886;55.034;73.150;2023-03-04T01:28:50;-13.34;77.11
72762;SHT30;60886;55.034;73.150;2023-03-04T01:31:51;-13.42;77.23
72762;SHT30;60886;55.034;73.150;2023-03-04T01:34:54;-13.45;77.19
72762;SHT30;60886;55.034;73.150;2023-03-04T01:37:55;-13.46;77.32
72762;SHT30;60886;55.034;73.150;2023-03-04T01:40:57;-13.35;77.63
72762;SHT30;60886;55.034;73.150;2023-03-04T01:43:59;-13.42;77.80
72762;SHT30;60886;55.034;73.150;2023-03-04T01:47:08;-13.41;77.78
72762;SHT30;60886;55.034;73.150;2023-03-04T01:50:34;-13.38;78.01
72762;SHT30;60886;55.034;73.150;2023-03-04T01:53:35;-13.42;77.77
72762;SHT30;60886;55.034;73.150;2023-03-04T01:56:38;-13.38;77.76
72762;SHT30;60886;55.034;73.150;2023-03-04T01:59:40;-13.36;77.91
72762;SHT30;60886;55.034;73.150;2023-03-04T02:02:42;-13.41;77.75
72762;SHT30;60886;55.034;73.150;2023-03-04T02:05:45;-13.36;77.92
72762;SHT30;60886;55.034;73.150;2023-03-04T02:08:57;-13.25;77.88
72762;SHT30;60886;55.034;73.150;2023-03-04T02:12:06;-13.20;77.37
72762;SHT30;60886;55.034;73.150;2023-03-04T02:15:10;-13.12;77.36
72762;SHT30;60886;55.034;73.150;2023-03-04T02:18:19;-13.10;77.36
72762;SHT30;60886;55.034;73.150;2023-03-04T02:21:27;-13.14;77.26
72762;SHT30;60886;55.034;73.150;2023-03-04T02:24:44;-13.07;77.76
72762;SHT30;60886;55.034;73.150;2023-03-04T02:27:55;-13.01;77.27
72762;SHT30;60886;55.034;73.150;2023-03-04T02:31:01;-12.93;77.61
72762;SHT30;60886;55.034;73.150;2023-03-04T02:34:23;-12.91;77.27
72762;SHT30;60886;55.034;73.150;2023-03-04T02:37:27;-12.79;77.00
72762;SHT30;60886;55.034;73.150;2023-03-04T02:40:32;-12.80;77.00
72762;SHT30;60886;55.034;73.150;2023-03-04T02:43:34;-12.75;77.58
72762;SHT30;60886;55.034;73.150;2023-03-04T02:46:46;-12.72;77.49
72762;SHT30;60886;55.034;73.150;2023-03-04T02:49:47;-12.70;77.43
72762;SHT30;60886;55.034;73.150;2023-03-04T02:52:49;-12.56;77.63
72762;SHT30;60886;55.034;73.150;2023-03-04T02:56:03;-12.45;77.08
72762;SHT30;60886;55.034;73.150;2023-03-04T02:59:09;-12.41;77.02
72762;SHT30;60886;55.034;73.150;2023-03-04T03:02:19;-12.38;76.87
72762;SHT30;60886;55.034;73.150;2023-03-04T03:05:20;-12.36;77.24
72762;SHT30;60886;55.034;73.150;2023-03-04T03:08:23;-12.22;77.29
72762;SHT30;60886;55.034;73.150;2023-03-04T03:11:33;-12.24;77.00
72762;SHT30;60886;55.034;73.150;2023-03-04T03:14:45;-12.15;77.25
72762;SHT30;60886;55.034;73.150;2023-03-04T03:17:48;-12.01;76.75
72762;SHT30;60886;55.034;73.150;2023-03-04T03:20:50;-11.88;76.40
72762;SHT30;60886;55.034;73.150;2023-03-04T03:24:01;-11.81;76.41
72762;SHT30;60886;55.034;73.150;2023-03-04T03:27:06;-11.75;76.33
72762;SHT30;60886;55.034;73.150;2023-03-04T03:30:11;-11.77;76.09
72762;SHT30;60886;55.034;73.150;2023-03-04T03:33:17;-11.78;76.48
72762;SHT30;60886;55.034;73.150;2023-03-04T03:36:19;-11.77;76.80
72762;SHT30;60886;55.034;73.150;2023-03-04T03:39:20;-11.66;77.21
72762;SHT30;60886;55.034;73.150;2023-03-04T03:42:27;-11.57;77.15
72762;SHT30;60886;55.034;73.150;2023-03-04T03:45:29;-11.42;77.29
72762;SHT30;60886;55.034;73.150;2023-03-04T03:48:30;-11.26;77.20
72762;SHT30;60886;55.034;73.150;2023-03-04T03:51:32;-11.14;77.27
72762;SHT30;60886;55.034;73.150;2023-03-04T03:54:33;-10.78;76.93
72762;SHT30;60886;55.034;73.150;2023-03-04T03:57:34;-10.71;76.05
72762;SHT30;60886;55.034;73.150;2023-03-04T04:00:36;-10.54;76.08
72762;SHT30;60886;55.034;73.150;2023-03-04T04:03:37;-10.29;75.17
72762;SHT30;60886;55.034;73.150;2023-03-04T04:06:39;-10.30;74.65
72762;SHT30;60886;55.034;73.150;2023-03-04T04:09:40;-10.06;74.15
72762;SHT30;60886;55.034;73.150;2023-03-04T04:12:41;-9.80;73.23
72762;SHT30;60886;55.034;73.150;2023-03-04T04:15:43;-9.68;72.77
72762;SHT30;60886;55.034;73.150;2023-03-04T04:18:49;-9.63;73.41
72762;SHT30;60886;55.034;73.150;2023-03-04T04:22:17;-9.59;73.57
72762;SHT30;60886;55.034;73.150;2023-03-04T04:25:23;-9.38;73.39
72762;SHT30;60886;55.034;73.150;2023-03-04T04:28:29;-9.39;72.93
72762;SHT30;60886;55.034;73.150;2023-03-04T04:31:31;-9.24;73.28
72762;SHT30;60886;55.034;73.150;2023-03-04T04:34:32;-9.15;73.29
72762;SHT30;60886;55.034;73.150;2023-03-04T04:37:34;-9.03;73.83
72762;SHT30;60886;55.034;73.150;2023-03-04T04:40:35;-8.80;73.05
72762;SHT30;60886;55.034;73.150;2023-03-04T04:43:37;-8.59;72.64
72762;SHT30;60886;55.034;73.150;2023-03-04T04:46:39;-8.21;72.71
72762;SHT30;60886;55.034;73.150;2023-03-04T04:49:40;-8.12;72.41
72762;SHT30;60886;55.034;73.150;2023-03-04T04:52:42;-8.26;71.75
72762;SHT30;60886;55.034;73.150;2023-03-04T04:55:54;-8.09;72.68
72762;SHT30;60886;55.034;73.150;2023-03-04T04:58:57;-8.06;72.16
72762;SHT30;60886;55.034;73.150;2023-03-04T05:02:06;-7.83;72.27
72762;SHT30;60886;55.034;73.150;2023-03-04T05:05:17;-7.64;71.99
72762;SHT30;60886;55.034;73.150;2023-03-04T05:08:23;-7.61;71.56
72762;SHT30;60886;55.034;73.150;2023-03-04T05:11:25;-7.47;72.20
72762;SHT30;60886;55.034;73.150;2023-03-04T05:14:40;-7.23;71.83
72762;SHT30;60886;55.034;73.150;2023-03-04T05:17:51;-7.02;70.66
72762;SHT30;60886;55.034;73.150;2023-03-04T05:20:57;-7.15;70.61
72762;SHT30;60886;55.034;73.150;2023-03-04T05:24:03;-7.13;70.99
72762;SHT30;60886;55.034;73.150;2023-03-04T05:27:06;-7.22;71.16
72762;SHT30;60886;55.034;73.150;2023-03-04T05:30:08;-7.02;71.90
72762;SHT30;60886;55.034;73.150;2023-03-04T05:33:10;-6.91;71.35
72762;SHT30;60886;55.034;73.150;2023-03-04T05:36:12;-6.91;71.28
72762;SHT30;60886;55.034;73.150;2023-03-04T05:39:13;-6.89;71.58
72762;SHT30;60886;55.034;73.150;2023-03-04T05:42:25;-6.93;72.38
72762;SHT30;60886;55.034;73.150;2023-03-04T05:45:26;-6.85;71.73
72762;SHT30;60886;55.034;73.150;2023-03-04T05:48:38;-6.68;71.78
72762;SHT30;60886;55.034;73.150;2023-03-04T05:51:39;-6.41;72.05
72762;SHT30;60886;55.034;73.150;2023-03-04T05:54:40;-6.03;71.57
72762;SHT30;60886;55.034;73.150;2023-03-04T05:57:42;-5.92;69.87
72762;SHT30;60886;55.034;73.150;2023-03-04T06:00:48;-5.87;70.89
72762;SHT30;60886;55.034;73.150;2023-03-04T06:03:59;-5.54;70.54
72762;SHT30;60886;55.034;73.150;2023-03-04T06:07:06;-5.36;69.70
72762;SHT30;60886;55.034;73.150;2023-03-04T06:10:08;-5.51;68.66
72762;SHT30;60886;55.034;73.150;2023-03-04T06:13:10;-5.76;70.69
72762;SHT30;60886;55.034;73.150;2023-03-04T06:16:12;-5.80;70.53
72762;SHT30;60886;55.034;73.150;2023-03-04T06:19:13;-5.73;71.16
72762;SHT30;60886;55.034;73.150;2023-03-04T06:22:15;-5.63;71.01
72762;SHT30;60886;55.034;73.150;2023-03-04T06:25:16;-5.62;70.77
72762;SHT30;60886;55.034;73.150;2023-03-04T06:28:18;-5.73;70.71
72762;SHT30;60886;55.034;73.150;2023-03-04T06:31:19;-5.65;71.59
72762;SHT30;60886;55.034;73.150;2023-03-04T06:34:20;-5.45;71.31
72762;SHT30;60886;55.034;73.150;2023-03-04T06:37:31;-5.49;70.95
72762;SHT30;60886;55.034;73.150;2023-03-04T06:40:43;-5.49;70.77
72762;SHT30;60886;55.034;73.150;2023-03-04T06:43:45;-5.65;71.10
72762;SHT30;60886;55.034;73.150;2023-03-04T06:46:47;-5.82;72.05
72762;SHT30;60886;55.034;73.150;2023-03-04T06:49:48;-5.65;72.28
72762;SHT30;60886;55.034;73.150;2023-03-04T06:52:57;-5.52;71.93
72762;SHT30;60886;55.034;73.150;2023-03-04T06:55:58;-5.34;71.76
72762;SHT30;60886;55.034;73.150;2023-03-04T06:59:00;-5.22;71.14
72762;SHT30;60886;55.034;73.150;2023-03-04T07:02:07;-5.01;71.47
72762;SHT30;60886;55.034;73.150;2023-03-04T07:05:10;-5.08;70.69
72762;SHT30;60886;55.034;73.150;2023-03-04T07:08:11;-5.21;71.54
72762;SHT30;60886;55.034;73.150;2023-03-04T07:11:14;-5.14;71.73
72762;SHT30;60886;55.034;73.150;2023-03-04T07:14:15;-5.03;71.34
72762;SHT30;60886;55.034;73.150;2023-03-04T07:17:16;-4.87;71.36
72762;SHT30;60886;55.034;73.150;2023-03-04T07:20:18;-5.03;70.69
72762;SHT30;60886;55.034;73.150;2023-03-04T07:23:29;-5.15;71.74
72762;SHT30;60886;55.034;73.150;2023-03-04T07:26:41;-4.79;71.38
72762;SHT30;60886;55.034;73.150;2023-03-04T07:29:44;-4.69;70.42
72762;SHT30;60886;55.034;73.150;2023-03-04T07:32:45;-4.33;70.54
72762;SHT30;60886;55.034;73.150;2023-03-04T07:35:46;-4.11;69.74
72762;SHT30;60886;55.034;73.150;2023-03-04T07:38:49;-4.03;69.34
72762;SHT30;60886;55.034;73.150;2023-03-04T07:41:51;-4.05;69.54
72762;SHT30;60886;55.034;73.150;2023-03-04T07:44:52;-4.12;69.90
72762;SHT30;60886;55.034;73.150;2023-03-04T07:47:57;-4.40;70.03
72762;SHT30;60886;55.034;73.150;2023-03-04T07:51:13;-4.23;70.30
72762;SHT30;60886;55.034;73.150;2023-03-04T07:54:15;-4.33;70.33
72762;SHT30;60886;55.034;73.150;2023-03-04T07:57:27;-4.37;70.62
72762;SHT30;60886;55.034;73.150;2023-03-04T08:00:28;-4.39;70.47
72762;SHT30;60886;55.034;73.150;2023-03-04T08:03:41;-4.30;70.72
72762;SHT30;60886;55.034;73.150;2023-03-04T08:06:42;-4.12;70.69
72762;SHT30;60886;55.034;73.150;2023-03-04T08:09:54;-3.71;71.20
72762;SHT30;60886;55.034;73.150;2023-03-04T08:13:06;-3.48;70.56
72762;SHT30;60886;55.034;73.150;2023-03-04T08:16:13;-3.10;70.28
72762;SHT30;60886;55.034;73.150;2023-03-04T08:19:28;-2.88;69.23
72762;SHT30;60886;55.034;73.150;2023-03-04T08:22:39;-2.79;69.52
72762;SHT30;60886;55.034;73.150;2023-03-04T08:25:50;-2.72;69.37
72762;SHT30;60886;55.034;73.150;2023-03-04T08:28:53;-2.58;68.92
72762;SHT30;60886;55.034;73.150;2023-03-04T08:31:54;-2.89;69.21
72762;SHT30;60886;55.034;73.150;2023-03-04T08:34:56;-2.91;69.32
72762;SHT30;60886;55.034;73.150;2023-03-04T08:37:57;-2.45;69.85
72762;SHT30;60886;55.034;73.150;2023-03-04T08:40:59;-2.06;68.75
72762;SHT30;60886;55.034;73.150;2023-03-04T08:44:03;-2.31;68.44
72762;SHT30;60886;55.034;73.150;2023-03-04T08:47:08;-2.57;69.81
72762;SHT30;60886;55.034;73.150;2023-03-04T08:50:10;-2.37;70.12
72762;SHT30;60886;55.034;73.150;2023-03-04T08:53:14;-2.27;69.64
72762;SHT30;60886;55.034;73.150;2023-03-04T08:56:16;-2.62;70.38
72762;SHT30;60886;55.034;73.150;2023-03-04T08:59:18;-2.82;71.00
72762;SHT30;60886;55.034;73.150;2023-03-04T09:02:19;-2.79;71.98
72762;SHT30;60886;55.034;73.150;2023-03-04T09:05:27;-2.71;71.95
72762;SHT30;60886;55.034;73.150;2023-03-04T09:08:41;-2.64;71.18
72762;SHT30;60886;55.034;73.150;2023-03-04T09:11:43;-2.61;72.24
72762;SHT30;60886;55.034;73.150;2023-03-04T09:14:44;-2.49;72.02
72762;SHT30;60886;55.034;73.150;2023-03-04T09:17:45;-2.42;72.41
72762;SHT30;60886;55.034;73.150;2023-03-04T09:20:48;-2.38;71.04
72762;SHT30;60886;55.034;73.150;2023-03-04T09:23:49;-2.34;71.16
72762;SHT30;60886;55.034;73.150;2023-03-04T09:26:55;-2.71;72.02
72762;SHT30;60886;55.034;73.150;2023-03-04T09:29:56;-2.52;73.02
72762;SHT30;60886;55.034;73.150;2023-03-04T09:32:58;-2.33;72.38
72762;SHT30;60886;55.034;73.150;2023-03-04T09:35:59;-2.20;72.81
72762;SHT30;60886;55.034;73.150;2023-03-04T09:39:02;-2.34;71.87
72762;SHT30;60886;55.034;73.150;2023-03-04T09:42:08;-2.79;72.72
72762;SHT30;60886;55.034;73.150;2023-03-04T09:45:15;-2.78;72.33
72762;SHT30;60886;55.034;73.150;2023-03-04T09:48:20;-2.91;72.57
72762;SHT30;60886;55.034;73.150;2023-03-04T10:04:54;-2.24;71.74
72762;SHT30;60886;55.034;73.150;2023-03-04T10:08:34;-2.00;71.00
72762;SHT30;60886;55.034;73.150;2023-03-04T10:12:11;-2.20;70.52
72762;SHT30;60886;55.034;73.150;2023-03-04T10:15:26;-2.26;71.57
72762;SHT30;60886;55.034;73.150;2023-03-04T10:22:40;-1.84;71.33
72762;SHT30;60886;55.034;73.150;2023-03-04T10:25:52;-1.83;70.91
72762;SHT30;60886;55.034;73.150;2023-03-04T10:28:54;-1.86;70.96
72762;SHT30;60886;55.034;73.150;2023-03-04T10:32:15;-1.70;71.09
72762;SHT30;60886;55.034;73.150;2023-03-04T10:35:19;-2.03;71.95
72762;SHT30;60886;55.034;73.150;2023-03-04T10:38:23;-2.17;71.45
72762;SHT30;60886;55.034;73.150;2023-03-04T10:41:30;-2.37;72.86
72762;SHT30;60886;55.034;73.150;2023-03-04T10:44:33;-2.24;72.68
72762;SHT30;60886;55.034;73.150;2023-03-04T10:47:35;-1.96;72.38
72762;SHT30;60886;55.034;73.150;2023-03-04T10:50:36;-1.84;72.23
72762;SHT30;60886;55.034;73.150;2023-03-04T10:53:50;-1.87;72.20
72762;SHT30;60886;55.034;73.150;2023-03-04T10:56:57;-1.97;72.40
72762;SHT30;60886;55.034;73.150;2023-03-04T11:00:03;-1.90;72.67
72762;SHT30;60886;55.034;73.150;2023-03-04T11:03:31;-1.83;72.72
72762;SHT30;60886;55.034;73.150;2023-03-04T11:06:41;-1.77;72.15
72762;SHT30;60886;55.034;73.150;2023-03-04T11:09:48;-1.84;72.42
72762;SHT30;60886;55.034;73.150;2023-03-04T11:16:30;-1.93;72.42
72762;SHT30;60886;55.034;73.150;2023-03-04T11:19:44;-1.93;72.93
72762;SHT30;60886;55.034;73.150;2023-03-04T11:22:47;-1.97;73.14
72762;SHT30;60886;55.034;73.150;2023-03-04T11:26:01;-1.89;72.88
72762;SHT30;60886;55.034;73.150;2023-03-04T11:29:09;-1.91;72.72
72762;SHT30;60886;55.034;73.150;2023-03-04T11:32:40;-1.89;72.88
72762;SHT30;60886;55.034;73.150;2023-03-04T11:42:57;-1.97;73.24
72762;SHT30;60886;55.034;73.150;2023-03-04T11:52:57;-1.87;73.49
72762;SHT30;60886;55.034;73.150;2023-03-04T11:56:33;-1.70;73.23
72762;SHT30;60886;55.034;73.150;2023-03-04T12:03:21;-1.89;73.58
72762;SHT30;60886;55.034;73.150;2023-03-04T12:07:05;-1.73;73.13
72762;SHT30;60886;55.034;73.150;2023-03-04T12:23:48;-2.03;74.03
72762;SHT30;60886;55.034;73.150;2023-03-04T12:41:00;-2.07;74.36
72762;SHT30;60886;55.034;73.150;2023-03-04T12:44:21;-1.94;74.09
72762;SHT30;60886;55.034;73.150;2023-03-04T12:47:36;-1.97;73.93
72762;SHT30;60886;55.034;73.150;2023-03-04T12:54:50;-2.13;75.03
72762;SHT30;60886;55.034;73.150;2023-03-04T12:57:54;-2.21;75.20
72762;SHT30;60886;55.034;73.150;2023-03-04T13:05:00;-2.28;75.98
72762;SHT30;60886;55.034;73.150;2023-03-04T13:12:01;-2.18;76.26
72762;SHT30;60886;55.034;73.150;2023-03-04T13:21:45;-2.20;76.69
72762;SHT30;60886;55.034;73.150;2023-03-04T13:24:57;-2.33;76.93
72762;SHT30;60886;55.034;73.150;2023-03-04T13:31:18;-2.40;77.22
72762;SHT30;60886;55.034;73.150;2023-03-04T13:34:44;-2.44;77.04
72762;SHT30;60886;55.034;73.150;2023-03-04T13:37:57;-2.54;77.99
72762;SHT30;60886;55.034;73.150;2023-03-04T13:41:30;-2.55;78.06
72762;SHT30;60886;55.034;73.150;2023-03-04T13:47:44;-2.58;77.89
72762;SHT30;60886;55.034;73.150;2023-03-04T13:50:51;-2.62;77.51
72762;SHT30;60886;55.034;73.150;2023-03-04T13:57:21;-2.61;77.78
72762;SHT30;60886;55.034;73.150;2023-03-04T14:00:22;-2.57;77.62
72762;SHT30;60886;55.034;73.150;2023-03-04T14:03:29;-2.59;77.72
72762;SHT30;60886;55.034;73.150;2023-03-04T14:06:42;-2.49;77.58
72762;SHT30;60886;55.034;73.150;2023-03-04T14:12:58;-2.48;76.89
72762;SHT30;60886;55.034;73.150;2023-03-04T14:16:00;-2.51;76.73
72762;SHT30;60886;55.034;73.150;2023-03-04T14:19:04;-2.47;77.05
72762;SHT30;60886;55.034;73.150;2023-03-04T14:22:27;-2.47;75.73
72762;SHT30;60886;55.034;73.150;2023-03-04T14:25:33;-2.38;75.76
72762;SHT30;60886;55.034;73.150;2023-03-04T14:29:02;-2.23;75.00
72762;SHT30;60886;55.034;73.150;2023-03-04T14:32:06;-2.14;74.57
72762;SHT30;60886;55.034;73.150;2023-03-04T14:35:18;-2.23;74.07
72762;SHT30;60886;55.034;73.150;2023-03-04T14:38:27;-2.18;73.88
72762;SHT30;60886;55.034;73.150;2023-03-04T14:41:40;-2.21;73.51
72762;SHT30;60886;55.034;73.150;2023-03-04T14:44:48;-2.20;72.98
72762;SHT30;60886;55.034;73.150;2023-03-04T14:47:53;-2.34;73.39
72762;SHT30;60886;55.034;73.150;2023-03-04T14:51:03;-2.36;73.33
72762;SHT30;60886;55.034;73.150;2023-03-04T14:54:05;-2.45;73.92
72762;SHT30;60886;55.034;73.150;2023-03-04T14:57:28;-2.40;74.05
72762;SHT30;60886;55.034;73.150;2023-03-04T15:00:37;-2.41;74.43
72762;SHT30;60886;55.034;73.150;2023-03-04T15:03:43;-2.52;74.35
72762;SHT30;60886;55.034;73.150;2023-03-04T15:06:52;-2.54;74.80
72762;SHT30;60886;55.034;73.150;2023-03-04T15:09:54;-2.48;74.48
72762;SHT30;60886;55.034;73.150;2023-03-04T15:13:04;-2.42;74.49
72762;SHT30;60886;55.034;73.150;2023-03-04T15:16:18;-2.30;74.29
72762;SHT30;60886;55.034;73.150;2023-03-04T15:19:28;-2.36;74.12
72762;SHT30;60886;55.034;73.150;2023-03-04T15:25:53;-2.37;74.12
72762;SHT30;60886;55.034;73.150;2023-03-04T15:28:55;-2.41;74.68
72762;SHT30;60886;55.034;73.150;2023-03-04T15:32:05;-2.49;75.09
72762;SHT30;60886;55.034;73.150;2023-03-04T15:35:11;-2.42;75.13
72762;SHT30;60886;55.034;73.150;2023-03-04T15:38:13;-2.42;75.31
72762;SHT30;60886;55.034;73.150;2023-03-04T15:41:23;-2.45;75.56
72762;SHT30;60886;55.034;73.150;2023-03-04T15:44:30;-2.47;75.94
72762;SHT30;60886;55.034;73.150;2023-03-04T15:47:31;-2.49;76.21
72762;SHT30;60886;55.034;73.150;2023-03-04T15:50:43;-2.57;76.54
72762;SHT30;60886;55.034;73.150;2023-03-04T15:53:47;-2.54;76.76
72762;SHT30;60886;55.034;73.150;2023-03-04T15:56:53;-2.55;76.79
72762;SHT30;60886;55.034;73.150;2023-03-04T15:59:54;-2.49;76.92
72762;SHT30;60886;55.034;73.150;2023-03-04T16:02:55;-2.54;76.71
72762;SHT30;60886;55.034;73.150;2023-03-04T16:06:09;-2.55;76.82
72762;SHT30;60886;55.034;73.150;2023-03-04T16:09:17;-2.61;76.87
72762;SHT30;60886;55.034;73.150;2023-03-04T16:12:21;-2.71;77.32
72762;SHT30;60886;55.034;73.150;2023-03-04T16:15:25;-2.69;77.25
72762;SHT30;60886;55.034;73.150;2023-03-04T16:18:26;-2.72;77.08
72762;SHT30;60886;55.034;73.150;2023-03-04T16:21:28;-2.54;76.50
72762;SHT30;60886;55.034;73.150;2023-03-04T16:24:36;-2.54;75.85
72762;SHT30;60886;55.034;73.150;2023-03-04T16:27:38;-2.45;75.79
72762;SHT30;60886;55.034;73.150;2023-03-04T16:30:40;-2.42;75.30
72762;SHT30;60886;55.034;73.150;2023-03-04T16:33:52;-2.47;75.95
72762;SHT30;60886;55.034;73.150;2023-03-04T16:36:53;-2.45;75.76
72762;SHT30;60886;55.034;73.150;2023-03-04T16:40:06;-2.37;75.81
72762;SHT30;60886;55.034;73.150;2023-03-04T16:43:14;-2.44;75.84
72762;SHT30;60886;55.034;73.150;2023-03-04T16:46:16;-2.36;75.74
72762;SHT30;60886;55.034;73.150;2023-03-04T16:49:27;-2.41;76.17
72762;SHT30;60886;55.034;73.150;2023-03-04T16:52:32;-2.49;76.57
72762;SHT30;60886;55.034;73.150;2023-03-04T16:55:44;-2.58;76.95
72762;SHT30;60886;55.034;73.150;2023-03-04T16:58:51;-2.59;77.02
72762;SHT30;60886;55.034;73.150;2023-03-04T17:02:23;-2.64;77.47
72762;SHT30;60886;55.034;73.150;2023-03-04T17:05:30;-2.55;77.39
72762;SHT30;60886;55.034;73.150;2023-03-04T17:08:37;-2.57;77.42
72762;SHT30;60886;55.034;73.150;2023-03-04T17:11:39;-2.62;77.93
72762;SHT30;60886;55.034;73.150;2023-03-04T17:14:40;-2.66;78.28
72762;SHT30;60886;55.034;73.150;2023-03-04T17:17:42;-2.59;78.26
72762;SHT30;60886;55.034;73.150;2023-03-04T17:21:03;-2.57;78.25
72762;SHT30;60886;55.034;73.150;2023-03-04T17:24:09;-2.64;78.52
72762;SHT30;60886;55.034;73.150;2023-03-04T17:27:11;-2.55;78.55
72762;SHT30;60886;55.034;73.150;2023-03-04T17:30:13;-2.52;78.16
72762;SHT30;60886;55.034;73.150;2023-03-04T17:33:14;-2.51;77.60
72762;SHT30;60886;55.034;73.150;2023-03-04T17:36:17;-2.49;77.56
72762;SHT30;60886;55.034;73.150;2023-03-04T17:39:19;-2.44;77.20
72762;SHT30;60886;55.034;73.150;2023-03-04T17:42:31;-2.51;76.96
72762;SHT30;60886;55.034;73.150;2023-03-04T17:45:32;-2.51;76.99
72762;SHT30;60886;55.034;73.150;2023-03-04T17:48:34;-2.51;76.92
72762;SHT30;60886;55.034;73.150;2023-03-04T17:51:37;-2.44;76.22
72762;SHT30;60886;55.034;73.150;2023-03-04T17:54:39;-2.37;76.10
72762;SHT30;60886;55.034;73.150;2023-03-04T17:57:41;-2.40;76.05
72762;SHT30;60886;55.034;73.150;2023-03-04T18:00:49;-2.38;76.06
72762;SHT30;60886;55.034;73.150;2023-03-04T18:03:56;-2.36;76.15
72762;SHT30;60886;55.034;73.150;2023-03-04T18:07:05;-2.38;75.89
72762;SHT30;60886;55.034;73.150;2023-03-04T18:10:07;-2.31;75.99
72762;SHT30;60886;55.034;73.150;2023-03-04T18:13:08;-2.30;75.95
72762;SHT30;60886;55.034;73.150;2023-03-04T18:16:11;-2.17;75.65
72762;SHT30;60886;55.034;73.150;2023-03-04T18:19:25;-2.20;75.27
72762;SHT30;60886;55.034;73.150;2023-03-04T18:22:31;-2.17;75.61
72762;SHT30;60886;55.034;73.150;2023-03-04T18:25:43;-2.17;75.46
72762;SHT30;60886;55.034;73.150;2023-03-04T18:28:44;-2.24;75.43
72762;SHT30;60886;55.034;73.150;2023-03-04T18:31:45;-2.27;75.83
72762;SHT30;60886;55.034;73.150;2023-03-04T18:34:57;-2.27;75.58
72762;SHT30;60886;55.034;73.150;2023-03-04T18:38:03;-2.30;75.65
72762;SHT30;60886;55.034;73.150;2023-03-04T18:41:15;-2.27;75.74
72762;SHT30;60886;55.034;73.150;2023-03-04T18:44:20;-2.17;75.71
72762;SHT30;60886;55.034;73.150;2023-03-04T18:47:26;-2.03;74.72
72762;SHT30;60886;55.034;73.150;2023-03-04T18:50:33;-2.01;75.02
72762;SHT30;60886;55.034;73.150;2023-03-04T18:53:35;-2.03;75.03
72762;SHT30;60886;55.034;73.150;2023-03-04T18:56:48;-2.10;75.02
72762;SHT30;60886;55.034;73.150;2023-03-04T18:59:57;-2.11;75.36
72762;SHT30;60886;55.034;73.150;2023-03-04T19:03:10;-2.14;75.28
72762;SHT30;60886;55.034;73.150;2023-03-04T19:06:12;-2.17;75.76
72762;SHT30;60886;55.034;73.150;2023-03-04T19:09:13;-2.24;75.65
72762;SHT30;60886;55.034;73.150;2023-03-04T19:12:25;-2.23;75.90
72762;SHT30;60886;55.034;73.150;2023-03-04T19:15:32;-2.18;75.77
72762;SHT30;60886;55.034;73.150;2023-03-04T19:18:33;-2.20;75.79
72762;SHT30;60886;55.034;73.150;2023-03-04T19:21:36;-2.33;76.10
72762;SHT30;60886;55.034;73.150;2023-03-04T19:24:42;-2.40;76.48
72762;SHT30;60886;55.034;73.150;2023-03-04T19:27:54;-2.34;76.49
72762;SHT30;60886;55.034;73.150;2023-03-04T19:30:56;-2.30;76.02
72762;SHT30;60886;55.034;73.150;2023-03-04T19:34:08;-2.34;76.17
72762;SHT30;60886;55.034;73.150;2023-03-04T19:37:10;-2.30;76.40
72762;SHT30;60886;55.034;73.150;2023-03-04T19:40:17;-2.24;76.17
72762;SHT30;60886;55.034;73.150;2023-03-04T19:43:18;-2.28;76.11
72762;SHT30;60886;55.034;73.150;2023-03-04T19:46:27;-2.24;76.35
72762;SHT30;60886;55.034;73.150;2023-03-04T19:49:30;-2.26;75.94
72762;SHT30;60886;55.034;73.150;2023-03-04T19:52:42;-2.28;76.27
72762;SHT30;60886;55.034;73.150;2023-03-04T19:55:47;-2.21;76.09
72762;SHT30;60886;55.034;73.150;2023-03-04T19:58:53;-2.27;75.97
72762;SHT30;60886;55.034;73.150;2023-03-04T20:02:05;-2.21;76.32
72762;SHT30;60886;55.034;73.150;2023-03-04T20:05:07;-2.20;76.04
72762;SHT30;60886;55.034;73.150;2023-03-04T20:08:08;-2.14;76.06
72762;SHT30;60886;55.034;73.150;2023-03-04T20:11:13;-2.10;75.73
72762;SHT30;60886;55.034;73.150;2023-03-04T20:14:14;-2.04;75.68
72762;SHT30;60886;55.034;73.150;2023-03-04T20:17:20;-1.97;75.32
72762;SHT30;60886;55.034;73.150;2023-03-04T20:20:27;-1.94;75.45
72762;SHT30;60886;55.034;73.150;2023-03-04T20:23:29;-1.86;75.00
72762;SHT30;60886;55.034;73.150;2023-03-04T20:26:31;-1.77;74.75
72762;SHT30;60886;55.034;73.150;2023-03-04T20:29:42;-1.70;74.78
72762;SHT30;60886;55.034;73.150;2023-03-04T20:32:44;-1.66;74.29
72762;SHT30;60886;55.034;73.150;2023-03-04T20:35:45;-1.62;74.51
72762;SHT30;60886;55.034;73.150;2023-03-04T20:38:48;-1.58;74.39
72762;SHT30;60886;55.034;73.150;2023-03-04T20:41:54;-1.59;74.72
72762;SHT30;60886;55.034;73.150;2023-03-04T20:44:55;-1.59;74.77
72762;SHT30;60886;55.034;73.150;2023-03-04T20:47:57;-1.66;75.09
72762;SHT30;60886;55.034;73.150;2023-03-04T20:51:07;-1.67;74.87
72762;SHT30;60886;55.034;73.150;2023-03-04T20:54:09;-1.67;75.27
72762;SHT30;60886;55.034;73.150;2023-03-04T20:57:10;-1.63;75.02